Adelanto, California
Current Conditions -  °F | °C
As of 1:15 PM on Friday 24 Oct 2014 (Local Time) from KVCV Reporting Station
Scattered Clouds Scattered Clouds  
Wind Chill: 31°   Ceiling: Unl
Heat Index: 31°   Visibility: 10mi
Dew Point: -1°   Wind: 16mph
Humidity: 13%   Direction: 160°SSE
Pressure: 30.04"   Gusts: 24mph
Location:  34.58°N, 117.41°W
Report Text: KVCV 242015Z AUTO 16014G21KT 10SM SCT110 31/M01 A3004 RMK AO2
Loading
Personal Weather Stations






























Interactive Weather Map
Tropical Storm Tracking
New forecast layout! Learn more

10-Day Weather Forecast

Advertisements
Track Severe Weather on mobile